createdAt,value
2023-01-05T00:01:48.267Z,4.63
2023-01-05T00:04:17.150Z,3.90
2023-01-05T00:06:45.863Z,3.67
2023-01-05T00:09:16.591Z,3.57
2023-01-05T00:12:02.835Z,3.90
2023-01-05T00:14:51.675Z,4.20
2023-01-05T00:17:39.315Z,3.93
2023-01-05T00:20:31.694Z,4.13
2023-01-05T00:22:59.932Z,3.97
2023-01-05T00:25:30.332Z,3.53
2023-01-05T00:27:59.122Z,4.13
2023-01-05T00:30:30.638Z,4.30
2023-01-05T00:32:59.133Z,3.43
2023-01-05T00:35:28.217Z,3.87
2023-01-05T00:37:56.502Z,3.60
2023-01-05T00:40:24.760Z,4.50
2023-01-05T00:42:52.952Z,3.03
2023-01-05T00:45:30.291Z,3.10
2023-01-05T00:48:01.634Z,4.27
2023-01-05T00:50:36.240Z,4.43
2023-01-05T00:53:09.794Z,3.33
2023-01-05T00:55:41.163Z,3.87
2023-01-05T00:58:12.433Z,3.67
2023-01-05T01:00:47.718Z,3.70
2023-01-05T01:03:26.461Z,3.80
2023-01-05T01:06:03.634Z,3.27
2023-01-05T01:08:47.606Z,3.50
2023-01-05T01:11:18.569Z,3.03
2023-01-05T01:13:46.940Z,3.60
2023-01-05T01:16:17.565Z,3.57
2023-01-05T01:18:45.811Z,3.10
2023-01-05T01:21:15.320Z,2.83
2023-01-05T01:23:44.579Z,3.70
2023-01-05T01:26:15.104Z,3.80
2023-01-05T01:28:44.013Z,4.47
2023-01-05T01:31:12.326Z,3.60
2023-01-05T01:33:42.057Z,3.57
2023-01-05T01:36:11.962Z,3.47
2023-01-05T01:38:40.412Z,3.27
2023-01-05T01:41:08.677Z,4.70
2023-01-05T01:43:46.317Z,3.87
2023-01-05T01:46:18.113Z,3.60
2023-01-05T01:48:52.168Z,3.63
2023-01-05T01:51:24.465Z,3.33
2023-01-05T01:53:56.891Z,3.13
2023-01-05T01:56:27.465Z,3.50
2023-01-05T01:58:55.845Z,4.27
2023-01-05T02:01:24.318Z,3.90
2023-01-05T02:03:55.050Z,5.90
2023-01-05T02:06:23.580Z,4.57
2023-01-05T02:08:52.487Z,4.00
2023-01-05T02:11:39.219Z,3.57
2023-01-05T02:14:27.751Z,3.47
2023-01-05T02:17:06.678Z,4.30
2023-01-05T02:20:03.927Z,3.50
2023-01-05T02:22:56.128Z,3.20
2023-01-05T02:25:45.692Z,3.63
2023-01-05T02:28:25.184Z,3.17
2023-01-05T02:31:10.441Z,3.60
2023-01-05T02:34:07.447Z,3.60
2023-01-05T02:36:43.236Z,3.33
2023-01-05T02:39:17.312Z,3.60
2023-01-05T02:41:53.824Z,4.60
2023-01-05T02:44:22.848Z,3.93
2023-01-05T02:47:04.026Z,3.57
2023-01-05T02:49:37.263Z,3.70
2023-01-05T02:52:09.583Z,4.53
2023-01-05T02:54:42.987Z,2.97
2023-01-05T02:57:16.686Z,3.73
2023-01-05T02:59:48.907Z,4.10
2023-01-05T03:02:24.895Z,3.60
2023-01-05T03:04:59.351Z,3.97
2023-01-05T03:07:31.239Z,3.77
2023-01-05T03:10:19.939Z,4.03
2023-01-05T03:13:09.294Z,4.10
2023-01-05T03:15:41.024Z,3.50
2023-01-05T03:18:15.724Z,4.43
2023-01-05T03:20:51.409Z,4.70
2023-01-05T03:23:38.839Z,3.93
2023-01-05T03:26:26.020Z,2.60
2023-01-05T03:29:15.889Z,4.00
2023-01-05T03:32:09.853Z,3.57
2023-01-05T03:35:05.226Z,4.20
2023-01-05T03:37:38.357Z,4.00
2023-01-05T03:40:12.946Z,3.70
2023-01-05T03:42:42.306Z,4.07
2023-01-05T03:45:12.345Z,3.43
2023-01-05T03:47:41.087Z,3.87
2023-01-05T03:50:11.870Z,3.60
2023-01-05T03:52:40.163Z,4.33
2023-01-05T03:55:09.632Z,4.80
2023-01-05T03:57:38.516Z,4.00
2023-01-05T04:00:07.847Z,3.37
2023-01-05T04:02:46.560Z,4.03
2023-01-05T04:05:21.647Z,4.83
2023-01-05T04:07:50.062Z,3.73
2023-01-05T04:10:19.078Z,4.27
2023-01-05T04:12:48.243Z,4.00
2023-01-05T04:15:17.872Z,3.57
2023-01-05T04:17:46.889Z,3.67
2023-01-05T04:20:15.336Z,3.90
2023-01-05T04:22:45.929Z,3.87
2023-01-05T04:25:14.514Z,3.90
2023-01-05T04:27:45.004Z,4.13
2023-01-05T04:30:15.203Z,3.90
2023-01-05T04:32:43.793Z,4.40
2023-01-05T04:35:16.157Z,3.93
2023-01-05T04:37:47.950Z,4.77
2023-01-05T04:40:17.540Z,4.83
2023-01-05T04:42:53.260Z,5.13
2023-01-05T04:45:21.757Z,4.87
2023-01-05T04:47:50.619Z,3.57
2023-01-05T04:50:22.173Z,4.03
2023-01-05T04:52:52.712Z,3.00
2023-01-05T04:55:22.783Z,4.37
2023-01-05T04:57:51.929Z,3.50
2023-01-05T05:00:22.331Z,3.80
2023-01-05T05:02:52.401Z,4.93
2023-01-05T05:05:20.884Z,3.80
2023-01-05T05:07:54.082Z,4.20
2023-01-05T05:10:26.706Z,3.70
2023-01-05T05:12:55.021Z,3.50
2023-01-05T05:15:25.051Z,4.13
2023-01-05T05:17:53.448Z,4.00
2023-01-05T05:20:21.920Z,4.00
2023-01-05T05:22:51.189Z,3.50
2023-01-05T05:25:23.683Z,3.37
2023-01-05T05:27:52.433Z,4.03
2023-01-05T05:30:20.677Z,3.20
2023-01-05T05:32:48.942Z,3.90
2023-01-05T05:35:17.382Z,4.50
2023-01-05T05:37:48.045Z,3.77
2023-01-05T05:40:19.844Z,5.03
2023-01-05T05:42:49.432Z,4.23
2023-01-05T05:45:17.785Z,4.27
2023-01-05T05:47:46.029Z,4.03
2023-01-05T05:50:14.344Z,4.50
2023-01-05T05:52:42.710Z,3.33
2023-01-05T05:55:11.422Z,5.13
2023-01-05T05:57:39.668Z,4.23
2023-01-05T06:00:10.886Z,4.70
2023-01-05T06:02:42.297Z,4.73
2023-01-05T06:05:11.029Z,3.70
2023-01-05T06:07:39.307Z,3.93
2023-01-05T06:10:08.905Z,5.10
2023-01-05T06:12:37.295Z,3.97
2023-01-05T06:15:06.576Z,4.87
2023-01-05T06:17:36.284Z,4.97
2023-01-05T06:20:05.560Z,5.03
2023-01-05T06:22:34.045Z,4.50
2023-01-05T06:25:02.307Z,4.27
2023-01-05T06:27:30.591Z,4.70
2023-01-05T06:29:58.871Z,4.97
2023-01-05T06:32:27.189Z,6.33
2023-01-05T06:34:56.775Z,5.50
2023-01-05T06:37:24.991Z,4.90
2023-01-05T06:39:55.680Z,5.07
2023-01-05T06:42:24.121Z,4.10
2023-01-05T06:44:52.576Z,6.03
2023-01-05T06:47:20.983Z,4.80
2023-01-05T06:49:49.271Z,4.97
2023-01-05T06:52:18.990Z,4.70
2023-01-05T06:54:47.370Z,4.43
2023-01-05T06:57:15.664Z,4.47
2023-01-05T06:59:43.956Z,5.10
2023-01-05T07:02:15.542Z,4.13
2023-01-05T07:04:47.076Z,5.37
2023-01-05T07:07:16.671Z,3.87
2023-01-05T07:09:49.316Z,4.00
2023-01-05T07:12:17.734Z,4.73
2023-01-05T07:14:46.067Z,4.63
2023-01-05T07:17:14.359Z,4.63
2023-01-05T07:19:42.880Z,3.70
2023-01-05T07:22:11.147Z,4.80
2023-01-05T07:24:39.467Z,5.20
2023-01-05T07:27:09.920Z,4.37
2023-01-05T07:29:38.545Z,5.03
2023-01-05T07:32:07.033Z,4.87
2023-01-05T07:34:35.373Z,4.97
2023-01-05T07:37:03.683Z,5.70
2023-01-05T07:39:31.904Z,5.53
2023-01-05T07:42:00.275Z,6.10
2023-01-05T07:44:30.058Z,5.57
2023-01-05T07:46:58.617Z,5.23
2023-01-05T07:49:26.864Z,4.80
2023-01-05T07:51:55.137Z,4.83
2023-01-05T07:54:23.554Z,4.50
2023-01-05T07:56:51.859Z,4.63
2023-01-05T07:59:20.300Z,4.77
2023-01-05T08:01:50.329Z,4.63
2023-01-05T08:04:18.891Z,4.17
2023-01-05T08:06:47.224Z,5.83
2023-01-05T08:09:32.758Z,5.60
2023-01-05T08:12:01.004Z,5.83
2023-01-05T08:14:29.258Z,5.83
2023-01-05T08:16:58.945Z,4.80
2023-01-05T08:19:27.260Z,4.70
2023-01-05T08:21:55.585Z,4.43
2023-01-05T08:24:24.510Z,4.40
2023-01-05T08:26:52.872Z,5.13
2023-01-05T08:29:21.189Z,4.63
2023-01-05T08:31:49.583Z,5.13
2023-01-05T08:34:19.354Z,4.47
2023-01-05T08:36:47.639Z,5.10
2023-01-05T08:39:15.927Z,4.70
2023-01-05T08:41:44.431Z,4.30
2023-01-05T08:44:14.260Z,6.73
2023-01-05T08:46:42.877Z,4.50
2023-01-05T08:49:11.454Z,4.13
2023-01-05T08:51:41.087Z,5.20
2023-01-05T08:54:09.352Z,4.17
2023-01-05T08:56:39.350Z,4.57
2023-01-05T08:59:08.529Z,5.27
2023-01-05T09:01:37.226Z,4.10
2023-01-05T09:04:06.058Z,5.57
2023-01-05T09:06:34.348Z,4.67
2023-01-05T09:09:04.114Z,5.00
2023-01-05T09:11:33.427Z,4.80
2023-01-05T09:14:02.992Z,4.73
2023-01-05T09:19:21.875Z,5.23
2023-01-05T09:21:50.228Z,4.70
2023-01-05T09:24:19.858Z,4.80
2023-01-05T09:26:48.252Z,5.10
2023-01-05T09:29:16.582Z,4.23
2023-01-05T09:31:45.351Z,4.60
2023-01-05T09:34:13.779Z,4.73
2023-01-05T09:36:42.080Z,4.23
2023-01-05T09:39:11.104Z,4.37
2023-01-05T09:41:45.958Z,4.73
2023-01-05T09:44:23.390Z,4.40
2023-01-05T09:46:53.516Z,4.37
2023-01-05T09:49:24.498Z,3.93
2023-01-05T09:51:58.762Z,4.53
2023-01-05T09:54:30.420Z,5.10
2023-01-05T09:57:10.222Z,6.20
2023-01-05T09:59:42.004Z,5.20
2023-01-05T10:02:35.951Z,5.43
2023-01-05T10:05:06.423Z,5.07
2023-01-05T10:07:43.708Z,4.73
2023-01-05T10:10:30.409Z,5.07
2023-01-05T10:13:04.525Z,4.60
2023-01-05T10:15:41.345Z,5.53
2023-01-05T10:18:15.326Z,4.57
2023-01-05T10:21:04.578Z,5.10
2023-01-05T10:24:04.003Z,4.70
2023-01-05T10:27:22.595Z,4.50
2023-01-05T10:29:39.390Z,4.30
2023-01-05T10:32:18.434Z,4.27
2023-01-05T10:34:59.833Z,4.33
2023-01-05T10:37:46.806Z,4.37
2023-01-05T10:40:36.849Z,4.63
2023-01-05T10:43:27.595Z,3.23
2023-01-05T10:46:30.688Z,4.73
2023-01-05T10:48:46.239Z,3.97
2023-01-05T10:51:14.549Z,4.67
2023-01-05T10:53:44.925Z,3.63
2023-01-05T10:56:15.953Z,5.10
2023-01-05T10:58:46.922Z,5.37
2023-01-05T11:01:26.085Z,3.77
2023-01-05T11:04:26.511Z,4.20
2023-01-05T11:06:46.362Z,4.23
2023-01-05T11:09:22.447Z,4.43
2023-01-05T11:11:55.841Z,4.23
2023-01-05T11:14:26.227Z,3.77
2023-01-05T11:17:02.449Z,5.40
2023-01-05T11:19:32.957Z,4.63
2023-01-05T11:22:02.408Z,4.70
2023-01-05T11:24:34.185Z,4.80
2023-01-05T11:27:05.552Z,4.90
2023-01-05T11:29:34.002Z,4.67
2023-01-05T11:32:05.883Z,4.97
2023-01-05T11:34:41.991Z,4.23
2023-01-05T11:37:24.255Z,4.47
2023-01-05T11:39:54.928Z,4.83
2023-01-05T11:42:31.470Z,3.80
2023-01-05T11:45:01.826Z,3.93
2023-01-05T11:47:43.176Z,4.10
2023-01-05T11:50:21.639Z,4.00
2023-01-05T11:52:51.418Z,4.20
2023-01-05T11:55:38.612Z,4.87
2023-01-05T11:58:23.906Z,3.37
2023-01-05T12:01:30.027Z,3.87
2023-01-05T12:04:04.452Z,4.60
2023-01-05T12:06:54.560Z,4.37
2023-01-05T12:09:34.327Z,3.97
2023-01-05T12:12:18.312Z,4.83
2023-01-05T12:15:02.951Z,4.33
2023-01-05T12:17:41.371Z,4.63
2023-01-05T12:20:30.261Z,3.70
2023-01-05T12:23:28.954Z,3.80
2023-01-05T12:26:04.193Z,5.00
2023-01-05T12:28:56.609Z,4.77
2023-01-05T12:34:55.552Z,4.13
2023-01-05T12:37:36.259Z,3.73
2023-01-05T12:40:29.695Z,4.53
2023-01-05T12:43:03.867Z,4.00
2023-01-05T12:45:56.507Z,3.90
2023-01-05T12:48:30.488Z,4.70
2023-01-05T12:51:07.519Z,4.63
2023-01-05T12:53:53.081Z,5.47
2023-01-05T12:56:27.239Z,5.33
2023-01-05T12:59:19.385Z,4.17
2023-01-05T13:01:57.429Z,4.43
2023-01-05T13:04:46.838Z,3.70
2023-01-05T13:07:31.367Z,4.33
2023-01-05T13:10:03.932Z,4.67
2023-01-05T13:12:35.309Z,3.87
2023-01-05T13:15:14.430Z,5.53
2023-01-05T13:17:47.245Z,5.07
2023-01-05T13:20:27.138Z,4.03
2023-01-05T13:23:01.922Z,4.90
2023-01-05T13:25:48.686Z,4.90
2023-01-05T13:28:20.417Z,4.40
2023-01-05T13:31:03.803Z,4.90
2023-01-05T13:33:49.553Z,4.70
2023-01-05T13:36:31.853Z,4.43
2023-01-05T13:39:25.661Z,4.60
2023-01-05T13:42:25.450Z,4.00
2023-01-05T13:45:25.013Z,4.37
2023-01-05T13:48:12.649Z,4.67
2023-01-05T13:51:13.548Z,4.70
2023-01-05T13:53:42.597Z,4.93
2023-01-05T13:56:18.580Z,4.77
2023-01-05T13:58:50.974Z,3.60
2023-01-05T14:01:34.352Z,4.80
2023-01-05T14:04:03.388Z,4.03
2023-01-05T14:06:35.606Z,5.43
2023-01-05T14:09:07.477Z,5.13
2023-01-05T14:11:37.687Z,4.47
2023-01-05T14:14:27.719Z,4.43
2023-01-05T14:16:57.238Z,5.03
2023-01-05T14:19:47.727Z,4.90
2023-01-05T14:22:39.899Z,4.57
2023-01-05T14:25:49.182Z,4.10
2023-01-05T14:28:40.843Z,5.30
2023-01-05T14:31:36.755Z,5.93
2023-01-05T14:34:14.226Z,5.77
2023-01-05T14:36:44.429Z,5.87
2023-01-05T14:39:29.636Z,5.93
2023-01-05T14:42:03.316Z,6.23
2023-01-05T14:44:36.759Z,6.13
2023-01-05T14:47:07.146Z,6.27
2023-01-05T14:49:39.883Z,6.50
2023-01-05T14:52:17.274Z,5.90
2023-01-05T14:55:24.202Z,6.10
2023-01-05T14:57:59.925Z,5.60
2023-01-05T15:01:04.167Z,5.17
2023-01-05T15:03:41.580Z,5.83
2023-01-05T15:06:16.849Z,5.20
2023-01-05T15:09:17.227Z,4.73
2023-01-05T15:12:07.378Z,5.27
2023-01-05T15:14:58.612Z,5.07
2023-01-05T15:17:48.978Z,4.50
2023-01-05T15:20:41.612Z,5.20
2023-01-05T15:23:27.682Z,4.67
2023-01-05T15:26:23.209Z,4.20
2023-01-05T15:29:16.994Z,4.90
2023-01-05T15:31:49.757Z,4.20
2023-01-05T15:34:24.257Z,4.97
2023-01-05T15:37:01.317Z,5.03
2023-01-05T15:39:45.428Z,4.63
2023-01-05T15:42:18.507Z,4.00
2023-01-05T15:44:49.299Z,4.47
2023-01-05T15:47:19.838Z,3.90
2023-01-05T15:49:48.899Z,4.50
2023-01-05T15:52:25.196Z,4.73
2023-01-05T15:55:12.419Z,4.50
2023-01-05T15:57:40.892Z,4.60
2023-01-05T16:00:18.097Z,5.10
2023-01-05T16:02:46.454Z,4.53
2023-01-05T16:05:21.319Z,4.83
2023-01-05T16:07:56.279Z,5.00
2023-01-05T16:10:30.916Z,4.70
2023-01-05T16:13:04.262Z,5.03
2023-01-05T16:15:36.384Z,5.37
2023-01-05T16:18:07.745Z,5.00
2023-01-05T16:20:38.659Z,5.27
2023-01-05T16:23:16.509Z,4.27
2023-01-05T16:25:53.135Z,5.67
2023-01-05T16:28:24.188Z,5.20
2023-01-05T16:30:54.310Z,5.53
2023-01-05T16:33:34.572Z,4.33
2023-01-05T16:36:13.439Z,4.30
2023-01-05T16:38:42.611Z,4.10
2023-01-05T16:41:25.530Z,4.53
2023-01-05T16:43:57.018Z,4.60
2023-01-05T16:46:35.402Z,4.37
2023-01-05T16:49:25.035Z,4.47
2023-01-05T16:51:54.280Z,4.03
2023-01-05T16:54:24.645Z,4.03
2023-01-05T16:56:58.534Z,3.60
2023-01-05T16:59:51.518Z,4.10
2023-01-05T17:02:48.043Z,4.40
2023-01-05T17:05:18.633Z,4.43
2023-01-05T17:07:48.961Z,4.70
2023-01-05T17:10:21.104Z,4.83
2023-01-05T17:12:56.030Z,4.93
2023-01-05T17:15:27.646Z,4.43
2023-01-05T17:17:56.544Z,4.30
2023-01-05T17:20:27.663Z,4.63
2023-01-05T17:22:56.822Z,5.17
2023-01-05T17:25:30.074Z,4.97
2023-01-05T17:27:59.864Z,5.97
2023-01-05T17:30:28.094Z,5.33
2023-01-05T17:32:56.415Z,5.53
2023-01-05T17:35:24.741Z,7.00
2023-01-05T17:37:53.336Z,6.90
2023-01-05T17:40:22.880Z,6.27
2023-01-05T17:42:51.177Z,6.97
2023-01-05T17:45:23.256Z,6.40
2023-01-05T17:47:52.346Z,7.10
2023-01-05T17:50:22.834Z,6.77
2023-01-05T17:52:51.102Z,7.00
2023-01-05T17:55:19.516Z,6.23
2023-01-05T17:57:48.394Z,5.63
2023-01-05T18:00:20.842Z,5.60
2023-01-05T18:02:53.327Z,5.93
2023-01-05T18:05:22.580Z,5.93
2023-01-05T18:07:51.272Z,6.00
2023-01-05T18:10:25.950Z,5.47
2023-01-05T18:12:56.438Z,4.90
2023-01-05T18:17:59.445Z,5.43
2023-01-05T18:20:29.146Z,5.07
2023-01-05T18:22:57.609Z,5.57
2023-01-05T18:25:26.456Z,5.47
2023-01-05T18:27:54.801Z,4.50
2023-01-05T18:30:23.219Z,5.10
2023-01-05T18:32:51.909Z,5.57
2023-01-05T18:35:21.840Z,4.50
2023-01-05T18:37:50.141Z,4.70
2023-01-05T18:40:18.783Z,3.83
2023-01-05T18:42:47.024Z,4.00
2023-01-05T18:45:19.527Z,4.43
2023-01-05T18:47:58.723Z,4.00
2023-01-05T18:50:28.464Z,4.20
2023-01-05T18:52:56.846Z,3.87
2023-01-05T18:55:25.107Z,4.70
2023-01-05T18:57:53.468Z,5.23
2023-01-05T19:00:22.451Z,5.00
2023-01-05T19:02:50.738Z,4.57
2023-01-05T19:05:19.113Z,4.83
2023-01-05T19:07:52.005Z,4.80
2023-01-05T19:10:20.396Z,5.03
2023-01-05T19:12:48.724Z,5.43
2023-01-05T19:15:17.291Z,5.13
2023-01-05T19:17:48.773Z,5.40
2023-01-05T19:20:17.277Z,5.53
2023-01-05T19:22:47.968Z,5.43
2023-01-05T19:25:18.033Z,5.50
2023-01-05T19:27:46.346Z,5.90
2023-01-05T19:30:19.324Z,5.03
2023-01-05T19:32:47.691Z,5.20
2023-01-05T19:35:16.188Z,6.17
2023-01-05T19:37:45.249Z,5.03
2023-01-05T19:40:14.095Z,4.63
2023-01-05T19:42:43.801Z,4.67
2023-01-05T19:45:12.594Z,4.30
2023-01-05T19:47:42.952Z,4.03
2023-01-05T19:50:12.958Z,4.23
2023-01-05T19:52:41.251Z,3.97
2023-01-05T19:55:12.036Z,4.00
2023-01-05T19:57:40.369Z,3.77
2023-01-05T20:00:13.644Z,3.60
2023-01-05T20:02:43.145Z,4.47
2023-01-05T20:05:14.098Z,3.40
2023-01-05T20:07:43.578Z,2.90
2023-01-05T20:10:11.868Z,3.43
2023-01-05T20:12:40.618Z,3.43
2023-01-05T20:15:13.223Z,3.07
2023-01-05T20:17:42.284Z,3.00
2023-01-05T20:20:12.274Z,2.67
2023-01-05T20:22:41.212Z,2.93
2023-01-05T20:25:10.969Z,2.40
2023-01-05T20:27:39.733Z,2.83
2023-01-05T20:30:11.869Z,2.93
2023-01-05T20:32:40.478Z,3.47
2023-01-05T20:35:12.978Z,2.73
2023-01-05T20:37:42.058Z,3.00
2023-01-05T20:40:11.070Z,2.60
2023-01-05T20:42:39.408Z,3.23
2023-01-05T20:45:10.988Z,3.30
2023-01-05T20:47:47.567Z,3.07
2023-01-05T20:50:16.849Z,4.20
2023-01-05T20:52:45.637Z,4.10
2023-01-05T20:55:17.863Z,3.23
2023-01-05T20:57:47.103Z,3.20
2023-01-05T21:00:18.325Z,2.53
2023-01-05T21:02:48.482Z,2.37
2023-01-05T21:05:16.936Z,2.40
2023-01-05T21:07:45.238Z,2.80
2023-01-05T21:10:13.718Z,2.63
2023-01-05T21:12:42.049Z,2.60
2023-01-05T21:15:11.277Z,2.43
2023-01-05T21:17:41.229Z,2.43
2023-01-05T21:20:10.246Z,2.80
2023-01-05T21:22:38.508Z,2.60
2023-01-05T21:25:08.694Z,2.57
2023-01-05T21:27:37.472Z,2.10
2023-01-05T21:30:07.992Z,2.07
2023-01-05T21:32:36.459Z,1.60
2023-01-05T21:35:09.200Z,2.20
2023-01-05T21:37:37.695Z,1.90
2023-01-05T21:40:08.418Z,1.97
2023-01-05T21:42:42.930Z,2.00
2023-01-05T21:45:13.108Z,1.63
2023-01-05T21:47:41.400Z,2.13
2023-01-05T21:50:32.419Z,2.00
2023-01-05T21:53:18.144Z,2.20
2023-01-05T21:56:04.974Z,2.17
2023-01-05T21:58:34.461Z,2.07
2023-01-05T22:01:03.565Z,1.70
2023-01-05T22:03:33.922Z,1.47
2023-01-05T22:06:03.602Z,1.57
2023-01-05T22:08:31.928Z,1.70
2023-01-05T22:11:02.764Z,1.70
2023-01-05T22:13:31.110Z,1.70
2023-01-05T22:15:59.736Z,1.93
2023-01-05T22:18:28.035Z,1.60
2023-01-05T22:20:58.922Z,1.70
2023-01-05T22:23:29.272Z,1.80
2023-01-05T22:26:01.833Z,1.40
2023-01-05T22:28:30.804Z,1.60
2023-01-05T22:31:07.839Z,1.47
2023-01-05T22:33:37.581Z,1.27
2023-01-05T22:36:07.208Z,1.33
2023-01-05T22:38:38.339Z,1.50
2023-01-05T22:41:09.025Z,1.40
2023-01-05T22:43:38.817Z,1.70
2023-01-05T22:46:09.301Z,1.43
2023-01-05T22:48:39.167Z,1.53
2023-01-05T22:51:09.691Z,1.60
2023-01-05T22:53:39.705Z,1.50
2023-01-05T22:56:10.288Z,1.60
2023-01-05T22:58:38.991Z,1.80
2023-01-05T23:01:09.526Z,1.57
2023-01-05T23:03:37.946Z,1.57
2023-01-05T23:06:07.619Z,1.60
2023-01-05T23:08:36.791Z,1.43
2023-01-05T23:11:08.880Z,2.37
2023-01-05T23:13:37.484Z,2.20
2023-01-05T23:16:07.776Z,1.70
2023-01-05T23:18:36.844Z,1.73
2023-01-05T23:21:08.649Z,1.67
2023-01-05T23:23:37.775Z,1.40
2023-01-05T23:26:10.188Z,1.70
2023-01-05T23:28:38.937Z,1.40
2023-01-05T23:31:07.958Z,1.93
2023-01-05T23:33:37.450Z,1.40
2023-01-05T23:36:07.344Z,1.53
2023-01-05T23:38:35.619Z,1.20
2023-01-05T23:41:07.039Z,1.30
2023-01-05T23:43:39.339Z,1.27
2023-01-05T23:46:09.791Z,1.17
2023-01-05T23:48:38.727Z,1.53
2023-01-05T23:51:13.254Z,1.53
2023-01-05T23:53:42.857Z,1.67
2023-01-05T23:56:12.958Z,0.90
2023-01-05T23:58:43.085Z,1.00
